Startpagina
METAR-TAF:

METAR-TAF

Vliegvelden :

Keulen, Duitsland

Flughafen Köln-Bonn

breedte: 50-52N, lengte: 007-10E, hoogte: 91 m

Actueel weer

Dit bericht is 11 minuten geleden gemaakt, om 05:50 UTC
Wind 7 kt uit het zuidoosten
Temperatuur 12°C
Vochtigheid 94%
Druk 1022 hPa
Zicht 10 km of meer
Geheel bewolkt op 2000 ft

METAR: EDDK 240550Z 14007KT 9999 OVC020 12/11 Q1022 TEMPO BKN012

Tijdstip: 08:01 (06:01 UTC)

Verwachting

Dit bericht is 1 uur en het 1 minuten geleden gemaakt, om 05:00 UTC
Verwachting geldig van 24 om 06 UTC tot 25 om 12 UTC
Wind 7 kt uit het zuidzuidoosten
Zicht 10 km of meer
Gebroken wolken op 2500 ft
Tijdelijke
van 24 om 06 UTC tot 24 om 12 UTC
Zicht: 3500 m
Gebroken wolken op 1200 ft
lichte motregen, regen
Tijdelijke
van 24 om 15 UTC tot 24 om 22 UTC
Zicht: 4000 m
Gebroken wolken op 1300 ft
regen

TAF: EDDK 240500Z 2406/2512 15007KT 9999 BKN025 TEMPO 2406/2412 3500 -DZRA BKN012 TEMPO 2415/2422 4000 RA BKN013

Waarnemingen en weersverwachtingen van meer dan 4000 vliegvelden (METAR en TAF).

De beschikbare stations zijn de gele en rode punten op de kaart.

Ga met uw muis naar het station om de naam te zien.

Klik dan om waarnemingen en weersverwachtingen te zien.

kaart wijzigen: klik op de groene knoppen met een zwart kruis om in te zoomen, op de groene knop met een streepje om uit te zoomen of op de groene pijlen voor aangrenzende kaarten.


METAR-TAF: